createdAt,value
2019-01-06T00:00:32.249Z,95.80
2019-01-06T00:03:19.377Z,95.80
2019-01-06T00:06:06.872Z,95.80
2019-01-06T00:09:05.962Z,95.60
2019-01-06T00:11:56.744Z,95.50
2019-01-06T00:14:49.757Z,95.60
2019-01-06T00:17:39.677Z,95.70
2019-01-06T00:20:32.622Z,95.70
2019-01-06T00:23:18.129Z,95.80
2019-01-06T00:26:03.926Z,95.80
2019-01-06T00:28:49.891Z,95.80
2019-01-06T00:31:39.932Z,95.80
2019-01-06T00:34:25.591Z,96.00
2019-01-06T00:37:27.904Z,96.10
2019-01-06T00:40:20.618Z,96.30
2019-01-06T00:43:07.785Z,96.50
2019-01-06T00:46:04.670Z,96.60
2019-01-06T00:48:51.801Z,96.70
2019-01-06T00:51:37.260Z,96.70
2019-01-06T00:54:24.382Z,96.60
2019-01-06T00:57:14.065Z,96.40
2019-01-06T01:00:01.158Z,96.30
2019-01-06T01:02:50.796Z,96.40
2019-01-06T01:05:40.602Z,96.50
2019-01-06T01:08:26.394Z,96.60
2019-01-06T01:11:10.197Z,96.70
2019-01-06T01:13:57.361Z,96.80
2019-01-06T01:16:38.377Z,96.90
2019-01-06T01:19:34.607Z,96.90
2019-01-06T01:22:20.437Z,96.80
2019-01-06T01:25:06.278Z,97.00
2019-01-06T01:27:52.217Z,97.10
2019-01-06T01:30:37.912Z,97.00
2019-01-06T01:33:27.858Z,97.10
2019-01-06T01:36:17.661Z,97.30
2019-01-06T01:39:03.332Z,97.30
2019-01-06T01:41:49.041Z,97.40
2019-01-06T01:44:34.857Z,97.40
2019-01-06T01:47:20.751Z,97.30
2019-01-06T01:50:07.874Z,97.30
2019-01-06T01:53:00.925Z,97.20
2019-01-06T01:56:03.194Z,97.30
2019-01-06T01:58:50.385Z,97.30
2019-01-06T02:01:40.302Z,97.40
2019-01-06T02:04:25.807Z,97.30
2019-01-06T02:07:13.925Z,97.40
2019-01-06T02:09:51.645Z,97.30
2019-01-06T02:12:56.781Z,97.30
2019-01-06T02:15:42.321Z,97.20
2019-01-06T02:18:25.345Z,97.00
2019-01-06T02:21:27.822Z,96.80
2019-01-06T02:24:10.901Z,96.90
2019-01-06T02:26:58.025Z,96.90
2019-01-06T02:29:59.485Z,97.00
2019-01-06T02:33:01.550Z,96.90
2019-01-06T02:35:47.281Z,96.80
2019-01-06T02:38:33.005Z,96.80
2019-01-06T02:41:23.170Z,96.80
2019-01-06T02:44:08.662Z,97.00
2019-01-06T02:46:54.449Z,97.00
2019-01-06T02:49:50.661Z,97.10
2019-01-06T02:52:43.597Z,97.30
2019-01-06T02:55:28.841Z,97.30
2019-01-06T02:58:18.082Z,97.30
2019-01-06T03:01:08.317Z,97.40
2019-01-06T03:03:58.633Z,97.20
2019-01-06T03:06:44.630Z,97.00
2019-01-06T03:09:34.592Z,97.00
2019-01-06T03:12:20.293Z,97.00
2019-01-06T03:15:06.278Z,97.00
2019-01-06T03:17:48.149Z,96.90
2019-01-06T03:20:36.616Z,96.80
2019-01-06T03:23:21.893Z,96.70
2019-01-06T03:26:09.025Z,96.50
2019-01-06T03:28:56.177Z,96.30
2019-01-06T03:31:32.911Z,96.20
2019-01-06T03:34:20.597Z,96.10
2019-01-06T03:37:07.905Z,96.00
2019-01-06T03:39:53.777Z,96.00
2019-01-06T03:42:43.777Z,96.10
2019-01-06T03:45:36.786Z,96.20
2019-01-06T03:48:23.909Z,96.20
2019-01-06T03:51:10.630Z,96.30
2019-01-06T03:53:55.076Z,96.30
2019-01-06T03:56:45.054Z,96.30
2019-01-06T03:59:34.735Z,96.20
2019-01-06T04:02:20.017Z,96.10
2019-01-06T04:05:07.148Z,96.00
2019-01-06T04:07:54.184Z,95.90
2019-01-06T04:10:52.994Z,95.80
2019-01-06T04:13:30.773Z,95.80
2019-01-06T04:16:17.885Z,95.70
2019-01-06T04:19:05.021Z,95.70
2019-01-06T04:21:57.828Z,95.50
2019-01-06T04:24:50.775Z,94.70
2019-01-06T04:27:40.694Z,94.10
2019-01-06T04:30:38.017Z,93.90
2019-01-06T04:33:37.014Z,93.90
2019-01-06T04:36:22.801Z,94.00
2019-01-06T04:39:08.608Z,93.90
2019-01-06T04:42:10.890Z,93.80
2019-01-06T04:44:58.021Z,93.70
2019-01-06T04:48:03.169Z,93.70
2019-01-06T04:50:58.813Z,93.80
2019-01-06T04:53:45.949Z,93.80
2019-01-06T04:56:44.914Z,93.50
2019-01-06T04:59:47.004Z,93.40
2019-01-06T05:02:32.336Z,93.50
2019-01-06T05:05:25.420Z,93.50
2019-01-06T05:08:18.509Z,93.40
2019-01-06T05:11:18.077Z,93.20
2019-01-06T05:14:11.083Z,93.10
2019-01-06T05:16:53.892Z,93.10
2019-01-06T05:19:49.646Z,93.30
2019-01-06T05:22:39.452Z,93.50
2019-01-06T05:25:26.696Z,93.70
2019-01-06T05:28:12.349Z,93.80
2019-01-06T05:31:11.533Z,94.10
2019-01-06T05:34:01.566Z,94.30
2019-01-06T05:36:47.798Z,94.40
2019-01-06T05:39:34.993Z,94.60
2019-01-06T05:42:39.957Z,94.60
2019-01-06T05:45:29.656Z,94.70
2019-01-06T05:48:15.336Z,94.90
2019-01-06T05:51:20.498Z,94.90
2019-01-06T05:54:14.555Z,94.90
2019-01-06T05:57:04.452Z,94.70
2019-01-06T05:59:55.947Z,94.60
2019-01-06T06:02:41.730Z,94.60
2019-01-06T06:05:28.690Z,94.70
2019-01-06T06:08:16.757Z,94.50
2019-01-06T06:11:02.222Z,94.70
2019-01-06T06:13:48.113Z,94.90
2019-01-06T06:16:30.797Z,95.10
2019-01-06T06:19:17.932Z,95.20
2019-01-06T06:22:05.034Z,95.30
2019-01-06T06:25:01.022Z,95.30
2019-01-06T06:27:43.022Z,95.40
2019-01-06T06:30:28.833Z,95.40
2019-01-06T06:33:21.893Z,95.50
2019-01-06T06:36:09.070Z,95.50
2019-01-06T06:39:04.796Z,95.50
2019-01-06T06:41:57.618Z,95.60
2019-01-06T06:44:43.033Z,95.60
2019-01-06T06:47:30.160Z,95.60
2019-01-06T06:50:15.453Z,95.60
2019-01-06T06:53:11.757Z,95.70
2019-01-06T06:56:04.989Z,95.90
2019-01-06T06:58:58.072Z,95.90
2019-01-06T07:02:26.765Z,95.90
2019-01-06T07:05:13.893Z,95.90
2019-01-06T07:08:07.029Z,95.90
2019-01-06T07:10:54.207Z,96.00
2019-01-06T07:13:59.645Z,95.90
2019-01-06T07:17:23.106Z,96.10
2019-01-06T07:20:25.434Z,96.30
2019-01-06T07:23:12.557Z,96.40
2019-01-06T07:25:57.973Z,96.50
2019-01-06T07:28:48.007Z,96.60
2019-01-06T07:31:33.683Z,96.70
2019-01-06T07:34:35.981Z,96.60
2019-01-06T07:37:29.143Z,96.70
2019-01-06T07:40:14.726Z,96.80
2019-01-06T07:43:00.493Z,97.00
2019-01-06T07:45:57.005Z,97.10
2019-01-06T07:48:49.703Z,97.30
2019-01-06T07:51:34.976Z,97.00
2019-01-06T07:54:20.549Z,96.90
2019-01-06T07:57:06.485Z,96.90
2019-01-06T08:00:05.760Z,97.00
2019-01-06T08:03:10.681Z,97.00
2019-01-06T08:06:12.583Z,97.00
2019-01-06T08:08:59.702Z,96.90
2019-01-06T08:11:55.586Z,96.80
2019-01-06T08:15:00.585Z,96.70
2019-01-06T08:17:50.801Z,96.80
2019-01-06T08:20:47.040Z,96.80
2019-01-06T08:23:39.684Z,96.80
2019-01-06T08:26:29.450Z,96.80
2019-01-06T08:29:15.134Z,96.50
2019-01-06T08:31:54.029Z,96.50
2019-01-06T08:34:40.021Z,96.40
2019-01-06T08:37:33.092Z,96.30
2019-01-06T08:40:18.823Z,95.90
2019-01-06T08:43:18.082Z,95.70
2019-01-06T08:46:14.102Z,95.60
2019-01-06T08:49:13.349Z,96.00
2019-01-06T08:52:06.011Z,95.60
2019-01-06T08:55:02.605Z,95.50
2019-01-06T08:58:01.964Z,95.30
2019-01-06T09:00:47.821Z,95.30
2019-01-06T09:03:35.099Z,95.30
2019-01-06T09:06:21.153Z,95.20
2019-01-06T09:09:12.881Z,95.10
2019-01-06T09:12:05.865Z,95.10
2019-01-06T09:14:55.577Z,95.00
2019-01-06T09:17:48.324Z,94.90
2019-01-06T09:20:41.394Z,94.80
2019-01-06T09:23:42.717Z,94.60
2019-01-06T09:26:32.914Z,94.50
2019-01-06T09:29:19.641Z,94.20
2019-01-06T09:32:25.051Z,94.10
2019-01-06T09:35:20.906Z,94.10
2019-01-06T09:38:06.547Z,94.00
2019-01-06T09:40:52.973Z,94.20
2019-01-06T09:43:36.964Z,94.20
2019-01-06T09:46:33.050Z,93.80
2019-01-06T09:49:18.996Z,93.90
2019-01-06T09:52:04.922Z,93.80
2019-01-06T09:54:50.901Z,93.60
2019-01-06T09:57:50.165Z,93.50
2019-01-06T10:00:52.137Z,93.40
2019-01-06T10:03:37.849Z,93.40
2019-01-06T10:06:23.486Z,93.30
2019-01-06T10:09:21.296Z,93.30
2019-01-06T10:12:06.860Z,93.20
2019-01-06T10:14:52.577Z,92.90
2019-01-06T10:17:38.313Z,92.80
2019-01-06T10:20:39.592Z,92.60
2019-01-06T10:23:25.375Z,92.60
2019-01-06T10:26:15.432Z,92.50
2019-01-06T10:29:11.013Z,92.20
2019-01-06T10:31:58.469Z,92.10
2019-01-06T10:34:45.593Z,91.80
2019-01-06T10:37:31.142Z,91.40
2019-01-06T10:40:13.717Z,91.20
2019-01-06T10:42:59.545Z,91.20
2019-01-06T10:45:45.262Z,91.00
2019-01-06T10:48:35.293Z,91.00
2019-01-06T10:51:31.150Z,91.20
2019-01-06T10:54:16.433Z,91.30
2019-01-06T10:57:15.793Z,91.30
2019-01-06T11:00:01.416Z,91.50
2019-01-06T11:02:47.355Z,91.40
2019-01-06T11:05:43.497Z,91.20
2019-01-06T11:08:39.469Z,91.20
2019-01-06T11:11:41.488Z,90.80
2019-01-06T11:14:37.582Z,90.70
2019-01-06T11:17:27.542Z,90.70
2019-01-06T11:20:29.849Z,91.10
2019-01-06T11:23:22.457Z,90.50
2019-01-06T11:26:19.611Z,90.30
2019-01-06T11:29:15.892Z,90.40
2019-01-06T11:32:11.601Z,90.70
2019-01-06T11:35:13.749Z,90.90
2019-01-06T11:37:59.457Z,91.20
2019-01-06T11:40:49.121Z,91.50
2019-01-06T11:43:30.449Z,91.60
2019-01-06T11:46:11.809Z,91.40
2019-01-06T11:49:01.546Z,91.20
2019-01-06T11:51:48.771Z,91.20
2019-01-06T11:54:44.859Z,91.00
2019-01-06T11:57:34.941Z,90.80
2019-01-06T12:00:21.209Z,90.50
2019-01-06T12:03:11.188Z,91.00
2019-01-06T12:06:09.083Z,91.10
2019-01-06T12:09:05.045Z,91.00
2019-01-06T12:12:01.685Z,90.80
2019-01-06T12:14:54.664Z,90.80
2019-01-06T12:17:40.243Z,90.70
2019-01-06T12:20:30.281Z,90.30
2019-01-06T12:23:27.163Z,90.70
2019-01-06T12:26:12.945Z,90.60
2019-01-06T12:29:00.690Z,90.50
2019-01-06T12:31:47.869Z,90.20
2019-01-06T12:34:46.651Z,90.20
2019-01-06T12:37:45.601Z,90.30
2019-01-06T12:40:28.951Z,90.20
2019-01-06T12:43:30.737Z,90.00
2019-01-06T12:46:17.897Z,89.80
2019-01-06T12:49:07.669Z,89.50
2019-01-06T12:52:06.804Z,90.00
2019-01-06T12:54:59.465Z,89.90
2019-01-06T12:57:52.381Z,89.40
2019-01-06T13:00:48.149Z,89.70
2019-01-06T13:03:35.451Z,90.00
2019-01-06T13:06:20.793Z,90.10
2019-01-06T13:09:14.001Z,90.10
2019-01-06T13:12:09.957Z,90.20
2019-01-06T13:14:57.128Z,90.50
2019-01-06T13:17:43.505Z,90.60
2019-01-06T13:20:39.557Z,90.70
2019-01-06T13:23:25.466Z,91.00
2019-01-06T13:26:18.377Z,91.20
2019-01-06T13:29:08.044Z,91.10
2019-01-06T13:31:54.205Z,91.40
2019-01-06T13:34:53.457Z,91.40
2019-01-06T13:37:38.905Z,91.40
2019-01-06T13:40:26.146Z,91.40
2019-01-06T13:43:13.274Z,91.30
2019-01-06T13:46:18.647Z,91.50
2019-01-06T13:49:03.971Z,92.20
2019-01-06T13:51:57.056Z,92.10
2019-01-06T13:54:53.129Z,92.10
2019-01-06T13:57:46.373Z,92.10
2019-01-06T14:00:48.392Z,92.00
2019-01-06T14:03:47.175Z,92.00
2019-01-06T14:06:34.297Z,92.40
2019-01-06T14:09:19.617Z,92.10
2019-01-06T14:12:12.761Z,92.40
2019-01-06T14:14:58.123Z,92.30
2019-01-06T14:17:57.197Z,92.30
2019-01-06T14:20:45.796Z,92.20
2019-01-06T14:23:37.293Z,92.00
2019-01-06T14:26:39.448Z,92.10
2019-01-06T14:29:38.551Z,92.20
2019-01-06T14:32:40.031Z,92.30
2019-01-06T14:35:23.106Z,92.50
2019-01-06T14:38:08.810Z,92.60
2019-01-06T14:41:05.165Z,92.80
2019-01-06T14:43:52.443Z,92.90
2019-01-06T14:46:39.621Z,92.90
2019-01-06T14:49:26.526Z,93.00
2019-01-06T14:52:12.619Z,93.50
2019-01-06T14:55:02.371Z,93.20
2019-01-06T14:57:47.921Z,93.20
2019-01-06T15:00:40.963Z,93.20
2019-01-06T15:03:27.694Z,93.20
2019-01-06T15:06:15.114Z,93.10
2019-01-06T15:09:00.256Z,93.00
2019-01-06T15:11:44.275Z,93.00
2019-01-06T15:14:37.310Z,92.90
2019-01-06T15:17:39.217Z,92.80
2019-01-06T15:20:41.694Z,92.80
2019-01-06T15:23:28.881Z,92.80
2019-01-06T15:26:25.209Z,92.80
2019-01-06T15:29:11.113Z,92.90
2019-01-06T15:32:04.074Z,92.90
2019-01-06T15:34:50.049Z,92.90
2019-01-06T15:37:35.401Z,93.00
2019-01-06T15:40:22.782Z,92.90
2019-01-06T15:43:08.158Z,92.90
2019-01-06T15:46:10.298Z,92.90
2019-01-06T15:48:57.433Z,92.70
2019-01-06T15:51:45.069Z,92.80
2019-01-06T15:54:34.913Z,92.80
2019-01-06T15:57:20.277Z,92.80
2019-01-06T16:00:12.682Z,92.80
2019-01-06T16:02:58.861Z,92.80
2019-01-06T16:05:54.553Z,92.70
2019-01-06T16:08:41.354Z,93.10
2019-01-06T16:11:28.490Z,92.80
2019-01-06T16:14:15.613Z,92.80
2019-01-06T16:17:01.149Z,92.80
2019-01-06T16:19:46.764Z,92.90
2019-01-06T16:22:32.381Z,92.90
2019-01-06T16:25:34.521Z,92.80
2019-01-06T16:28:20.161Z,93.00
2019-01-06T16:31:05.450Z,93.10
2019-01-06T16:33:51.146Z,93.20
2019-01-06T16:36:36.953Z,93.40
2019-01-06T16:39:23.663Z,93.50
2019-01-06T16:42:16.461Z,93.60
2019-01-06T16:45:01.913Z,93.60
2019-01-06T16:47:49.029Z,93.70
2019-01-06T16:50:36.170Z,93.60
2019-01-06T16:53:34.156Z,93.60
2019-01-06T16:56:38.942Z,94.00
2019-01-06T16:59:28.664Z,93.80
2019-01-06T17:02:14.620Z,94.00
2019-01-06T17:05:01.737Z,94.00
2019-01-06T17:07:57.669Z,94.20
2019-01-06T17:10:43.253Z,94.30
2019-01-06T17:13:29.001Z,94.40
2019-01-06T17:16:31.120Z,94.40
2019-01-06T17:19:16.677Z,94.40
2019-01-06T17:22:06.319Z,94.50
2019-01-06T17:24:51.905Z,94.50
2019-01-06T17:27:36.663Z,94.50
2019-01-06T17:30:22.533Z,94.40
2019-01-06T17:33:08.254Z,94.50
2019-01-06T17:35:58.192Z,94.50
2019-01-06T17:38:44.535Z,94.60
2019-01-06T17:41:31.669Z,94.60
2019-01-06T17:44:18.852Z,94.60
2019-01-06T17:47:06.005Z,94.60
2019-01-06T17:49:55.688Z,94.60
2019-01-06T17:52:41.155Z,94.60
2019-01-06T17:55:34.116Z,94.40
2019-01-06T17:58:15.234Z,94.40
2019-01-06T18:01:08.024Z,94.40
2019-01-06T18:04:06.942Z,94.40
2019-01-06T18:07:06.805Z,94.40
2019-01-06T18:09:56.577Z,94.50
2019-01-06T18:12:49.145Z,94.50
2019-01-06T18:15:42.330Z,94.50
2019-01-06T18:18:27.939Z,94.40
2019-01-06T18:21:17.918Z,94.50
2019-01-06T18:24:03.528Z,94.50
2019-01-06T18:27:02.636Z,94.40
2019-01-06T18:29:58.679Z,94.80
2019-01-06T18:32:44.237Z,94.60
2019-01-06T18:35:43.482Z,94.60
2019-01-06T18:38:29.138Z,94.60
2019-01-06T18:41:22.153Z,94.90
2019-01-06T18:44:07.596Z,94.60
2019-01-06T18:47:13.076Z,94.60
2019-01-06T18:49:57.745Z,94.60
2019-01-06T18:52:41.476Z,94.50
2019-01-06T18:55:28.629Z,94.50
2019-01-06T18:58:24.597Z,94.50
2019-01-06T19:01:10.245Z,94.70
2019-01-06T19:03:56.041Z,94.70
2019-01-06T19:07:01.405Z,94.70
2019-01-06T19:09:47.251Z,94.70
2019-01-06T19:12:33.064Z,94.70
2019-01-06T19:15:18.630Z,94.70
2019-01-06T19:18:17.775Z,94.70
2019-01-06T19:20:58.689Z,94.70
2019-01-06T19:23:54.873Z,94.70
2019-01-06T19:26:42.003Z,94.80
2019-01-06T19:29:27.793Z,94.70
2019-01-06T19:32:13.589Z,94.90
2019-01-06T19:35:00.881Z,94.90
2019-01-06T19:37:48.001Z,95.00
2019-01-06T19:40:35.183Z,94.90
2019-01-06T19:43:25.340Z,94.80
2019-01-06T19:46:12.483Z,94.80
2019-01-06T19:48:59.629Z,94.80
2019-01-06T19:51:52.463Z,94.90
2019-01-06T19:54:38.231Z,94.90
2019-01-06T19:57:31.605Z,94.90
2019-01-06T20:00:36.868Z,94.90
2019-01-06T20:03:22.750Z,95.20
2019-01-06T20:06:15.677Z,94.90
2019-01-06T20:09:01.253Z,94.90
2019-01-06T20:11:57.317Z,95.00
2019-01-06T20:14:49.440Z,94.90
2019-01-06T20:17:42.387Z,94.90
2019-01-06T20:20:41.313Z,94.90
2019-01-06T20:23:43.314Z,95.00
2019-01-06T20:26:33.365Z,94.90
2019-01-06T20:29:23.088Z,94.90
2019-01-06T20:32:08.673Z,95.00
2019-01-06T20:35:10.993Z,95.10
2019-01-06T20:38:13.405Z,95.00
2019-01-06T20:40:59.285Z,95.00
2019-01-06T20:43:58.652Z,95.00
2019-01-06T20:46:44.417Z,94.90
2019-01-06T20:49:37.561Z,94.90
2019-01-06T20:52:23.134Z,94.90
2019-01-06T20:55:16.284Z,95.00
2019-01-06T20:58:02.410Z,94.90
2019-01-06T21:00:58.642Z,94.90
2019-01-06T21:03:51.513Z,94.90
2019-01-06T21:06:41.703Z,94.90
2019-01-06T21:09:31.340Z,94.90
2019-01-06T21:12:24.094Z,95.00
2019-01-06T21:15:10.913Z,95.00
2019-01-06T21:17:55.838Z,95.00
2019-01-06T21:20:42.964Z,94.90
2019-01-06T21:23:42.237Z,95.00
2019-01-06T21:26:42.289Z,95.00
2019-01-06T21:29:32.070Z,95.00
2019-01-06T21:32:30.989Z,94.90
2019-01-06T21:35:16.585Z,95.00
2019-01-06T21:38:00.874Z,94.90
2019-01-06T21:40:48.028Z,94.90
2019-01-06T21:43:49.993Z,94.80
2019-01-06T21:46:49.282Z,94.80
2019-01-06T21:49:28.651Z,94.80
2019-01-06T21:52:21.857Z,94.70
2019-01-06T21:55:08.981Z,94.70
2019-01-06T21:57:58.809Z,94.60
2019-01-06T22:00:54.708Z,94.50
2019-01-06T22:03:56.745Z,94.50
2019-01-06T22:06:52.682Z,94.40
2019-01-06T22:09:53.113Z,94.30
2019-01-06T22:12:45.979Z,94.20
2019-01-06T22:15:38.673Z,94.10
2019-01-06T22:18:41.345Z,94.10
2019-01-06T22:21:17.793Z,93.90
2019-01-06T22:24:11.369Z,93.80
2019-01-06T22:26:57.091Z,93.60
2019-01-06T22:29:42.979Z,93.60
2019-01-06T22:32:28.811Z,93.40
2019-01-06T22:35:14.810Z,93.40
2019-01-06T22:38:01.923Z,93.20
2019-01-06T22:40:47.272Z,93.30
2019-01-06T22:43:37.468Z,93.40
2019-01-06T22:46:36.580Z,93.30
2019-01-06T22:49:22.425Z,93.30
2019-01-06T22:52:09.771Z,93.30
2019-01-06T22:55:05.422Z,93.30
2019-01-06T22:57:51.385Z,93.30
2019-01-06T23:00:50.618Z,93.30
2019-01-06T23:04:04.576Z,93.30
2019-01-06T23:07:09.914Z,93.30
2019-01-06T23:10:14.820Z,93.30
2019-01-06T23:13:13.881Z,93.30
2019-01-06T23:16:03.519Z,93.30
2019-01-06T23:18:53.217Z,93.20
2019-01-06T23:21:55.481Z,93.20
2019-01-06T23:24:41.290Z,93.20
2019-01-06T23:27:37.484Z,93.10
2019-01-06T23:30:24.909Z,93.10
2019-01-06T23:33:14.609Z,93.10
2019-01-06T23:36:06.270Z,93.10
2019-01-06T23:39:11.541Z,92.90
2019-01-06T23:42:01.182Z,92.90
2019-01-06T23:44:46.693Z,92.90
2019-01-06T23:47:33.816Z,92.90
2019-01-06T23:50:19.523Z,92.90
2019-01-06T23:53:05.242Z,93.20
2019-01-06T23:55:50.869Z,92.90
2019-01-06T23:58:36.573Z,93.00
